createdAt,value
2022-10-05T00:01:34.922Z,16.50
2022-10-05T00:04:12.032Z,16.50
2022-10-05T00:06:38.774Z,16.50
2022-10-05T00:09:20.932Z,16.50
2022-10-05T00:11:48.454Z,16.50
2022-10-05T00:14:23.842Z,16.50
2022-10-05T00:16:51.027Z,16.50
2022-10-05T00:19:23.579Z,16.50
2022-10-05T00:21:50.313Z,16.60
2022-10-05T00:24:19.889Z,16.70
2022-10-05T00:26:46.832Z,16.70
2022-10-05T00:29:35.386Z,16.80
2022-10-05T00:32:02.100Z,16.80
2022-10-05T00:34:28.826Z,16.80
2022-10-05T00:36:55.529Z,16.90
2022-10-05T00:39:22.332Z,16.90
2022-10-05T00:41:55.503Z,16.90
2022-10-05T00:44:41.774Z,16.90
2022-10-05T00:47:28.939Z,16.90
2022-10-05T00:50:07.686Z,17.00
2022-10-05T00:52:34.329Z,17.00
2022-10-05T00:55:06.852Z,17.00
2022-10-05T00:57:33.922Z,16.80
2022-10-05T01:00:00.623Z,16.80
2022-10-05T01:02:37.234Z,16.80
2022-10-05T01:05:11.007Z,16.70
2022-10-05T01:07:43.741Z,16.60
2022-10-05T01:10:22.519Z,16.60
2022-10-05T01:13:07.151Z,16.50
2022-10-05T01:15:40.765Z,16.50
2022-10-05T01:18:12.792Z,16.50
2022-10-05T01:20:59.721Z,16.50
2022-10-05T01:23:35.300Z,16.50
2022-10-05T01:26:20.035Z,16.50
2022-10-05T01:29:00.119Z,16.50
2022-10-05T01:31:26.799Z,16.50
2022-10-05T01:33:56.255Z,16.50
2022-10-05T01:36:30.219Z,16.50
2022-10-05T01:39:35.393Z,16.40
2022-10-05T01:42:04.984Z,16.50
2022-10-05T01:44:37.162Z,16.50
2022-10-05T01:47:24.076Z,16.50
2022-10-05T01:49:53.488Z,16.50
2022-10-05T01:52:20.215Z,16.50
2022-10-05T01:54:55.775Z,16.50
2022-10-05T01:57:22.613Z,16.50
2022-10-05T02:00:18.473Z,16.60
2022-10-05T02:02:45.640Z,16.50
2022-10-05T02:05:18.167Z,16.50
2022-10-05T02:07:56.707Z,16.50
2022-10-05T02:10:26.318Z,16.50
2022-10-05T02:12:58.793Z,16.50
2022-10-05T02:15:32.532Z,16.60
2022-10-05T02:18:03.048Z,16.60
2022-10-05T02:20:31.698Z,16.60
2022-10-05T02:23:00.396Z,16.60
2022-10-05T02:25:35.044Z,16.70
2022-10-05T02:28:08.046Z,16.70
2022-10-05T02:30:38.051Z,16.80
2022-10-05T02:33:08.059Z,16.90
2022-10-05T02:35:34.875Z,16.90
2022-10-05T02:38:27.113Z,16.90
2022-10-05T02:41:01.040Z,16.90
2022-10-05T02:43:34.636Z,17.00
2022-10-05T02:46:10.156Z,17.00
2022-10-05T02:49:10.344Z,17.00
2022-10-05T02:51:59.474Z,17.00
2022-10-05T02:54:32.264Z,17.00
2022-10-05T02:56:58.948Z,17.10
2022-10-05T02:59:37.531Z,17.00
2022-10-05T03:02:14.913Z,17.00
2022-10-05T03:04:44.991Z,17.00
2022-10-05T03:07:11.673Z,17.00
2022-10-05T03:10:04.450Z,17.00
2022-10-05T03:12:31.068Z,17.00
2022-10-05T03:15:13.140Z,17.00
2022-10-05T03:18:11.970Z,17.00
2022-10-05T03:20:51.885Z,17.00
2022-10-05T03:23:38.793Z,17.00
2022-10-05T03:26:29.692Z,16.90
2022-10-05T03:29:08.146Z,16.90
2022-10-05T03:31:37.659Z,16.80
2022-10-05T03:34:08.243Z,16.70
2022-10-05T03:36:34.919Z,16.70
2022-10-05T03:39:01.582Z,16.60
2022-10-05T03:41:46.490Z,16.60
2022-10-05T03:44:32.050Z,16.50
2022-10-05T03:47:01.419Z,16.40
2022-10-05T03:49:37.275Z,16.40
2022-10-05T03:52:12.119Z,16.40
2022-10-05T03:54:41.129Z,16.40
2022-10-05T03:57:13.853Z,16.40
2022-10-05T03:59:44.486Z,16.40
2022-10-05T04:02:21.122Z,16.40
2022-10-05T04:04:54.603Z,16.40
2022-10-05T04:07:39.657Z,16.40
2022-10-05T04:10:11.996Z,16.40
2022-10-05T04:12:41.133Z,16.40
2022-10-05T04:15:43.161Z,16.40
2022-10-05T04:18:15.461Z,16.30
2022-10-05T04:20:44.453Z,16.30
2022-10-05T04:23:11.073Z,16.30
2022-10-05T04:25:46.304Z,16.30
2022-10-05T04:28:13.040Z,16.30
2022-10-05T04:30:42.204Z,16.30
2022-10-05T04:33:09.791Z,16.20
2022-10-05T04:35:55.230Z,16.20
2022-10-05T04:38:30.951Z,16.20
2022-10-05T04:40:57.623Z,16.20
2022-10-05T04:43:33.371Z,16.20
2022-10-05T04:46:10.968Z,16.20
2022-10-05T04:48:44.640Z,16.10
2022-10-05T04:51:26.265Z,16.10
2022-10-05T04:53:55.408Z,16.10
2022-10-05T04:56:27.929Z,16.10
2022-10-05T04:59:12.922Z,16.10
2022-10-05T05:01:45.342Z,16.00
2022-10-05T05:04:28.103Z,16.00
2022-10-05T05:06:54.707Z,16.00
2022-10-05T05:09:26.599Z,16.00
2022-10-05T05:12:11.384Z,16.00
2022-10-05T05:14:55.904Z,16.00
2022-10-05T05:17:34.892Z,16.00
2022-10-05T05:20:01.561Z,16.00
2022-10-05T05:22:47.006Z,16.00
2022-10-05T05:25:26.113Z,16.00
2022-10-05T05:27:52.831Z,16.00
2022-10-05T05:30:38.229Z,16.00
2022-10-05T05:33:20.458Z,15.80
2022-10-05T05:36:02.484Z,15.90
2022-10-05T05:38:29.146Z,15.90
2022-10-05T05:41:04.885Z,15.90
2022-10-05T05:43:50.444Z,15.90
2022-10-05T05:46:33.981Z,15.90
2022-10-05T05:49:22.379Z,15.90
2022-10-05T05:52:00.023Z,15.80
2022-10-05T05:54:39.005Z,15.80
2022-10-05T05:57:13.910Z,15.80
2022-10-05T06:00:06.439Z,15.80
2022-10-05T06:02:59.238Z,15.90
2022-10-05T06:05:26.029Z,15.90
2022-10-05T06:07:53.970Z,15.90
2022-10-05T06:10:20.661Z,15.90
2022-10-05T06:12:49.101Z,16.00
2022-10-05T06:15:25.047Z,16.00
2022-10-05T06:17:56.374Z,16.00
2022-10-05T06:20:41.219Z,16.00
2022-10-05T06:23:13.973Z,16.00
2022-10-05T06:25:52.952Z,16.10
2022-10-05T06:28:19.811Z,16.10
2022-10-05T06:34:26.751Z,16.10
2022-10-05T06:36:58.869Z,16.20
2022-10-05T06:39:35.014Z,16.30
2022-10-05T06:42:07.535Z,16.30
2022-10-05T06:44:54.764Z,16.40
2022-10-05T06:47:21.383Z,16.40
2022-10-05T06:50:09.845Z,16.40
2022-10-05T06:52:55.143Z,16.50
2022-10-05T06:55:40.377Z,16.50
2022-10-05T06:58:16.611Z,16.50
2022-10-05T07:00:49.101Z,16.60
2022-10-05T07:03:15.802Z,16.60
2022-10-05T07:05:42.464Z,16.70
2022-10-05T07:08:15.349Z,16.70
2022-10-05T07:10:57.874Z,16.70
2022-10-05T07:13:39.491Z,16.70
2022-10-05T07:16:09.208Z,16.80
2022-10-05T07:18:35.917Z,16.80
2022-10-05T07:21:02.681Z,16.80
2022-10-05T07:23:52.604Z,16.90
2022-10-05T07:26:19.238Z,16.90
2022-10-05T07:28:47.944Z,17.00
2022-10-05T07:31:14.673Z,17.00
2022-10-05T07:34:02.903Z,17.00
2022-10-05T07:36:58.563Z,17.10
2022-10-05T07:39:58.593Z,17.10
2022-10-05T07:42:36.377Z,17.10
2022-10-05T07:45:10.625Z,17.20
2022-10-05T07:47:43.601Z,17.20
2022-10-05T07:50:16.068Z,17.20
2022-10-05T07:52:48.045Z,17.30
2022-10-05T07:55:14.701Z,17.30
2022-10-05T07:57:47.412Z,17.30
2022-10-05T08:00:17.700Z,17.40
2022-10-05T08:02:44.559Z,17.50
2022-10-05T08:05:13.261Z,17.50
2022-10-05T08:07:40.309Z,17.60
2022-10-05T08:10:18.964Z,17.70
2022-10-05T08:12:48.737Z,17.80
2022-10-05T08:15:16.462Z,17.90
2022-10-05T08:17:49.475Z,18.00
2022-10-05T08:20:19.086Z,18.10
2022-10-05T08:22:47.483Z,18.10
2022-10-05T08:25:24.576Z,18.20
2022-10-05T08:28:03.243Z,18.30
2022-10-05T08:30:31.251Z,18.40
2022-10-05T08:33:00.792Z,18.50
2022-10-05T08:35:27.768Z,18.60
2022-10-05T08:37:55.183Z,18.70
2022-10-05T08:40:24.821Z,18.80
2022-10-05T08:42:51.476Z,18.90
2022-10-05T08:45:21.024Z,19.00
2022-10-05T08:47:59.173Z,19.00
2022-10-05T08:50:34.944Z,19.00
2022-10-05T08:53:12.293Z,19.10
2022-10-05T08:55:52.037Z,19.10
2022-10-05T08:58:30.729Z,19.20
2022-10-05T09:01:00.513Z,19.30
2022-10-05T09:03:45.815Z,19.30
2022-10-05T09:06:21.855Z,19.40
2022-10-05T09:09:09.511Z,19.50
2022-10-05T09:11:37.485Z,19.50
2022-10-05T09:14:04.154Z,19.60
2022-10-05T09:16:49.410Z,19.60
2022-10-05T09:19:34.884Z,19.60
2022-10-05T09:22:15.755Z,19.70
2022-10-05T09:24:58.872Z,19.70
2022-10-05T09:27:39.280Z,19.70
2022-10-05T09:30:15.056Z,19.80
2022-10-05T09:32:59.888Z,19.80
2022-10-05T09:35:49.106Z,19.80
2022-10-05T09:38:16.145Z,19.80
2022-10-05T09:41:01.574Z,19.80
2022-10-05T09:43:34.361Z,19.80
2022-10-05T09:46:09.245Z,19.90
2022-10-05T09:48:45.599Z,19.90
2022-10-05T09:51:18.053Z,19.90
2022-10-05T09:53:50.989Z,19.90
2022-10-05T09:56:36.228Z,19.90
2022-10-05T09:59:08.006Z,19.90
2022-10-05T10:01:51.708Z,19.80
2022-10-05T10:04:37.470Z,19.90
2022-10-05T10:07:05.024Z,19.90
2022-10-05T10:09:54.724Z,20.00
2022-10-05T10:12:43.474Z,20.00
2022-10-05T10:15:29.103Z,20.10
2022-10-05T10:18:07.925Z,20.00
2022-10-05T10:20:47.491Z,20.00
2022-10-05T10:23:14.154Z,20.00
2022-10-05T10:25:40.769Z,20.20
2022-10-05T10:28:25.638Z,20.30
2022-10-05T10:31:04.403Z,20.40
2022-10-05T10:33:49.509Z,20.40
2022-10-05T10:36:32.568Z,20.20
2022-10-05T10:39:14.450Z,20.20
2022-10-05T10:41:50.015Z,20.30
2022-10-05T10:44:16.708Z,20.40
2022-10-05T10:46:46.689Z,20.30
2022-10-05T10:49:28.863Z,20.30
2022-10-05T10:52:05.558Z,20.30
2022-10-05T10:54:38.130Z,20.40
2022-10-05T10:57:16.952Z,20.20
2022-10-05T10:59:55.418Z,20.20
2022-10-05T11:02:31.626Z,20.20
2022-10-05T11:05:04.210Z,20.30
2022-10-05T11:07:46.046Z,20.50
2022-10-05T11:10:30.874Z,20.60
2022-10-05T11:13:00.575Z,20.90
2022-10-05T11:15:36.500Z,20.90
2022-10-05T11:18:03.172Z,21.10
2022-10-05T11:20:36.081Z,21.20
2022-10-05T11:23:26.128Z,21.40
2022-10-05T11:25:57.843Z,21.30
2022-10-05T11:28:27.673Z,21.10
2022-10-05T11:30:54.475Z,21.20
2022-10-05T11:33:40.597Z,21.00
2022-10-05T11:36:25.831Z,21.00
2022-10-05T11:38:58.406Z,21.00
2022-10-05T11:41:28.048Z,21.00
2022-10-05T11:44:07.017Z,20.90
2022-10-05T11:46:40.103Z,20.90
2022-10-05T11:49:15.273Z,21.00
2022-10-05T11:51:47.467Z,21.00
2022-10-05T11:54:18.802Z,20.90
2022-10-05T11:56:52.266Z,21.00
2022-10-05T11:59:27.034Z,20.90
2022-10-05T12:02:14.128Z,20.90
2022-10-05T12:04:59.843Z,21.10
2022-10-05T12:07:26.465Z,21.20
2022-10-05T12:10:14.517Z,21.10
2022-10-05T12:12:45.231Z,21.20
2022-10-05T12:15:25.387Z,21.30
2022-10-05T12:18:00.082Z,21.30
2022-10-05T12:20:45.916Z,21.40
2022-10-05T12:23:21.817Z,21.30
2022-10-05T12:26:08.112Z,21.30
2022-10-05T12:28:41.201Z,21.40
2022-10-05T12:31:13.545Z,21.40
2022-10-05T12:33:46.643Z,21.50
2022-10-05T12:36:52.485Z,21.40
2022-10-05T12:39:36.555Z,21.30
2022-10-05T12:42:09.646Z,21.10
2022-10-05T12:44:51.410Z,21.20
2022-10-05T12:47:36.696Z,21.20
2022-10-05T12:50:09.286Z,21.20
2022-10-05T12:52:38.441Z,21.10
2022-10-05T12:55:15.714Z,21.10
2022-10-05T12:57:51.525Z,21.10
2022-10-05T13:00:22.957Z,21.10
2022-10-05T13:02:51.253Z,21.10
2022-10-05T13:05:44.789Z,21.20
2022-10-05T13:08:29.944Z,21.20
2022-10-05T13:11:02.257Z,21.20
2022-10-05T13:13:41.519Z,21.10
2022-10-05T13:16:17.445Z,21.10
2022-10-05T13:18:52.683Z,21.10
2022-10-05T13:21:26.754Z,21.10
2022-10-05T13:23:57.639Z,21.20
2022-10-05T13:26:31.792Z,21.20
2022-10-05T13:29:01.388Z,21.10
2022-10-05T13:31:43.244Z,21.20
2022-10-05T13:34:21.913Z,21.20
2022-10-05T13:36:56.874Z,21.20
2022-10-05T13:39:42.145Z,21.10
2022-10-05T13:42:15.531Z,21.10
2022-10-05T13:44:58.974Z,21.20
2022-10-05T13:47:31.644Z,21.10
2022-10-05T13:50:19.024Z,21.10
2022-10-05T13:53:04.313Z,21.10
2022-10-05T13:55:34.297Z,21.00
2022-10-05T13:58:22.370Z,20.90
2022-10-05T14:00:56.079Z,20.90
2022-10-05T14:03:38.389Z,20.90
2022-10-05T14:06:27.607Z,20.90
2022-10-05T14:08:54.533Z,20.90
2022-10-05T14:11:31.788Z,20.80
2022-10-05T14:14:03.367Z,20.80
2022-10-05T14:16:30.892Z,20.70
2022-10-05T14:18:57.816Z,20.70
2022-10-05T14:21:26.774Z,20.70
2022-10-05T14:23:53.623Z,20.70
2022-10-05T14:26:31.393Z,20.60
2022-10-05T14:29:19.225Z,20.60
2022-10-05T14:31:54.952Z,20.60
2022-10-05T14:34:34.787Z,20.60
2022-10-05T14:37:18.084Z,20.60
2022-10-05T14:39:45.894Z,20.50
2022-10-05T14:42:17.836Z,20.60
2022-10-05T14:44:45.108Z,20.60
2022-10-05T14:47:22.842Z,20.60
2022-10-05T14:50:10.672Z,20.60
2022-10-05T14:52:39.025Z,20.50
2022-10-05T14:55:18.229Z,20.50
2022-10-05T14:57:44.942Z,20.40
2022-10-05T15:00:18.654Z,20.50
2022-10-05T15:02:54.407Z,20.50
2022-10-05T15:05:21.053Z,20.50
2022-10-05T15:07:49.304Z,20.50
2022-10-05T15:10:35.562Z,20.50
2022-10-05T15:13:11.491Z,20.50
2022-10-05T15:15:47.297Z,20.50
2022-10-05T15:18:19.624Z,20.50
2022-10-05T15:20:57.405Z,20.50
2022-10-05T15:23:31.921Z,20.40
2022-10-05T15:26:07.799Z,20.50
2022-10-05T15:28:34.612Z,20.50
2022-10-05T15:31:03.271Z,20.50
2022-10-05T15:33:32.808Z,20.50
2022-10-05T15:36:15.038Z,20.40
2022-10-05T15:38:50.066Z,20.40
2022-10-05T15:41:30.082Z,20.40
2022-10-05T15:44:14.014Z,20.40
2022-10-05T15:46:49.532Z,20.40
2022-10-05T15:49:16.407Z,20.40
2022-10-05T15:51:57.706Z,20.40
2022-10-05T15:54:42.768Z,20.30
2022-10-05T15:57:09.407Z,20.30
2022-10-05T15:59:51.463Z,20.30
2022-10-05T16:02:22.509Z,20.30
2022-10-05T16:05:05.060Z,20.20
2022-10-05T16:08:00.376Z,20.10
2022-10-05T16:10:27.432Z,20.10
2022-10-05T16:13:15.307Z,20.10
2022-10-05T16:15:57.860Z,20.00
2022-10-05T16:18:26.896Z,20.00
2022-10-05T16:20:57.010Z,20.00
2022-10-05T16:23:29.788Z,20.00
2022-10-05T16:25:58.318Z,20.00
2022-10-05T16:28:40.067Z,20.00
2022-10-05T16:31:26.150Z,20.00
2022-10-05T16:33:55.827Z,19.90
2022-10-05T16:36:25.503Z,19.80
2022-10-05T16:38:59.653Z,19.80
2022-10-05T16:41:41.184Z,19.70
2022-10-05T16:44:13.037Z,19.60
2022-10-05T16:46:44.464Z,19.50
2022-10-05T16:49:29.777Z,19.50
2022-10-05T16:52:00.310Z,19.60
2022-10-05T16:54:37.287Z,19.50
2022-10-05T16:57:03.886Z,19.40
2022-10-05T16:59:49.441Z,19.40
2022-10-05T17:02:28.446Z,19.40
2022-10-05T17:04:56.749Z,19.30
2022-10-05T17:07:35.141Z,19.30
2022-10-05T17:10:15.607Z,19.30
2022-10-05T17:12:42.818Z,19.20
2022-10-05T17:15:10.266Z,19.30
2022-10-05T17:17:55.603Z,19.20
2022-10-05T17:20:40.258Z,19.20
2022-10-05T17:23:30.356Z,19.20
2022-10-05T17:26:03.109Z,19.20
2022-10-05T17:28:37.488Z,19.20
2022-10-05T17:31:22.769Z,19.20
2022-10-05T17:34:08.218Z,19.20
2022-10-05T17:36:42.855Z,19.20
2022-10-05T17:39:16.776Z,19.20
2022-10-05T17:41:43.735Z,19.20
2022-10-05T17:44:13.484Z,19.20
2022-10-05T17:46:46.054Z,19.10
2022-10-05T17:49:18.561Z,19.10
2022-10-05T17:52:03.660Z,19.00
2022-10-05T17:55:09.035Z,19.00
2022-10-05T17:57:37.051Z,19.00
2022-10-05T18:00:04.771Z,18.90
2022-10-05T18:02:38.550Z,18.80
2022-10-05T18:05:27.694Z,18.80
2022-10-05T18:08:16.598Z,18.80
2022-10-05T18:11:01.744Z,18.80
2022-10-05T18:13:35.810Z,18.80
2022-10-05T18:16:02.568Z,18.80
2022-10-05T18:18:44.596Z,18.80
2022-10-05T18:21:14.439Z,18.80
2022-10-05T18:23:47.827Z,18.70
2022-10-05T18:26:33.139Z,18.70
2022-10-05T18:29:15.676Z,18.70
2022-10-05T18:31:43.727Z,18.70
2022-10-05T18:34:10.359Z,18.80
2022-10-05T18:36:51.236Z,18.80
2022-10-05T18:39:17.890Z,18.80
2022-10-05T18:41:50.692Z,18.70
2022-10-05T18:44:20.206Z,18.70
2022-10-05T18:46:50.642Z,18.60
2022-10-05T18:49:23.252Z,18.50
2022-10-05T18:51:52.806Z,18.40
2022-10-05T18:54:19.521Z,18.30
2022-10-05T18:56:50.179Z,18.30
2022-10-05T18:59:29.225Z,18.30
2022-10-05T19:02:06.308Z,18.20
2022-10-05T19:04:39.186Z,18.20
2022-10-05T19:07:12.839Z,18.30
2022-10-05T19:09:54.911Z,18.30
2022-10-05T19:12:36.974Z,18.30
2022-10-05T19:15:07.490Z,18.30
2022-10-05T19:17:50.137Z,18.30
2022-10-05T19:20:24.467Z,18.30
2022-10-05T19:22:53.551Z,18.20
2022-10-05T19:25:50.541Z,18.20
2022-10-05T19:28:32.271Z,18.20
2022-10-05T19:31:17.955Z,18.30
2022-10-05T19:33:44.692Z,18.20
2022-10-05T19:36:31.984Z,18.20
2022-10-05T19:38:58.664Z,18.20
2022-10-05T19:41:35.871Z,18.20
2022-10-05T19:44:02.586Z,18.20
2022-10-05T19:46:32.657Z,18.20
2022-10-05T19:49:00.389Z,18.20
2022-10-05T19:51:29.699Z,18.20
2022-10-05T19:54:13.554Z,18.20
2022-10-05T19:56:47.787Z,18.20
2022-10-05T19:59:18.323Z,18.20
2022-10-05T20:01:50.339Z,18.20
2022-10-05T20:04:35.927Z,18.20
2022-10-05T20:07:03.009Z,18.10
2022-10-05T20:09:30.064Z,18.10
2022-10-05T20:11:56.865Z,17.90
2022-10-05T20:14:30.935Z,17.90
2022-10-05T20:17:35.545Z,17.90
2022-10-05T20:20:24.289Z,17.90
2022-10-05T20:22:51.154Z,17.90
2022-10-05T20:25:17.860Z,17.90
2022-10-05T20:27:44.736Z,17.80
2022-10-05T20:30:12.865Z,17.80
2022-10-05T20:32:39.582Z,17.80
2022-10-05T20:35:07.029Z,17.80
2022-10-05T20:37:33.797Z,17.70
2022-10-05T20:40:00.441Z,17.70
2022-10-05T20:42:29.712Z,17.70
2022-10-05T20:44:57.850Z,17.70
2022-10-05T20:47:25.259Z,17.70
2022-10-05T20:49:54.572Z,17.70
2022-10-05T20:52:22.248Z,17.70
2022-10-05T20:54:52.964Z,17.70
2022-10-05T20:57:21.223Z,17.70
2022-10-05T20:59:48.009Z,17.70
2022-10-05T21:02:14.654Z,17.70
2022-10-05T21:04:46.703Z,17.70
2022-10-05T21:07:15.130Z,17.70
2022-10-05T21:09:43.740Z,17.70
2022-10-05T21:12:10.759Z,17.60
2022-10-05T21:14:37.791Z,17.60
2022-10-05T21:17:05.079Z,17.60
2022-10-05T21:19:38.151Z,17.50
2022-10-05T21:22:07.333Z,17.50
2022-10-05T21:24:35.346Z,17.40
2022-10-05T21:27:02.110Z,17.30
2022-10-05T21:29:28.810Z,17.20
2022-10-05T21:31:55.772Z,17.20
2022-10-05T21:34:22.532Z,17.20
2022-10-05T21:36:49.216Z,17.10
2022-10-05T21:39:16.564Z,16.90
2022-10-05T21:41:43.328Z,16.90
2022-10-05T21:44:10.005Z,17.00
2022-10-05T21:46:37.606Z,16.90
2022-10-05T21:49:05.788Z,16.90
2022-10-05T21:51:33.961Z,16.90
2022-10-05T21:54:02.801Z,16.90
2022-10-05T21:56:31.343Z,16.90
2022-10-05T21:58:58.992Z,16.90
2022-10-05T22:01:25.956Z,16.90
2022-10-05T22:03:52.695Z,17.00
2022-10-05T22:06:19.371Z,17.00
2022-10-05T22:08:46.050Z,17.00
2022-10-05T22:11:17.733Z,17.00
2022-10-05T22:13:45.975Z,17.10
2022-10-05T22:16:13.163Z,17.10
2022-10-05T22:18:40.114Z,17.10
2022-10-05T22:21:07.814Z,17.10
2022-10-05T22:23:35.735Z,17.10
2022-10-05T22:26:03.133Z,17.10
2022-10-05T22:28:31.029Z,17.00
2022-10-05T22:30:59.537Z,17.10
2022-10-05T22:33:26.300Z,17.10
2022-10-05T22:35:53.338Z,17.00
2022-10-05T22:38:20.029Z,17.00
2022-10-05T22:40:46.741Z,16.90
2022-10-05T22:43:13.397Z,16.90
2022-10-05T22:45:40.086Z,16.90
2022-10-05T22:48:06.817Z,16.80
2022-10-05T22:50:33.481Z,16.70
2022-10-05T22:53:00.158Z,16.60
2022-10-05T22:55:26.994Z,16.60
2022-10-05T22:57:53.662Z,16.60
2022-10-05T23:00:24.705Z,16.50
2022-10-05T23:02:54.514Z,16.50
2022-10-05T23:05:21.160Z,16.50
2022-10-05T23:07:47.803Z,16.50
2022-10-05T23:10:16.363Z,16.50
2022-10-05T23:12:43.708Z,16.50
2022-10-05T23:15:10.882Z,16.40
2022-10-05T23:17:39.822Z,16.40
2022-10-05T23:20:07.632Z,16.40
2022-10-05T23:22:37.648Z,16.50
2022-10-05T23:25:05.226Z,16.40
2022-10-05T23:27:42.241Z,16.40
2022-10-05T23:30:09.756Z,16.40
2022-10-05T23:32:40.404Z,16.40
2022-10-05T23:35:08.241Z,16.40
2022-10-05T23:37:42.481Z,16.30
2022-10-05T23:40:12.089Z,16.30
2022-10-05T23:42:39.772Z,16.30
2022-10-05T23:45:07.166Z,16.20
2022-10-05T23:47:33.844Z,16.20
2022-10-05T23:50:00.675Z,16.20
2022-10-05T23:52:27.409Z,16.10
2022-10-05T23:54:54.118Z,16.10
2022-10-05T23:57:20.961Z,16.10
2022-10-05T23:59:50.276Z,16.00
